sensor_id;sensor_type;location;lat;lon;timestamp;pressure;altitude;pressure_sealevel;temperature
20730;BMP280;10526;50.850;12.928;2023-02-13T00:04:01;100009.44;;;6.12
20730;BMP280;10526;50.850;12.928;2023-02-13T00:08:23;100003.38;;;6.11
20730;BMP280;10526;50.850;12.928;2023-02-13T00:12:45;100006.63;;;6.08
20730;BMP280;10526;50.850;12.928;2023-02-13T00:17:07;100002.44;;;6.07
20730;BMP280;10526;50.850;12.928;2023-02-13T00:21:29;100001.34;;;6.08
20730;BMP280;10526;50.850;12.928;2023-02-13T00:25:51;99999.00;;;6.06
20730;BMP280;10526;50.850;12.928;2023-02-13T00:30:15;99993.09;;;6.09
20730;BMP280;10526;50.850;12.928;2023-02-13T00:34:37;99983.47;;;6.05
20730;BMP280;10526;50.850;12.928;2023-02-13T00:38:59;99994.38;;;6.03
20730;BMP280;10526;50.850;12.928;2023-02-13T00:43:21;99993.56;;;6.03
20730;BMP280;10526;50.850;12.928;2023-02-13T00:47:43;99989.38;;;6.02
20730;BMP280;10526;50.850;12.928;2023-02-13T00:52:05;99988.75;;;6.05
20730;BMP280;10526;50.850;12.928;2023-02-13T00:56:28;99992.50;;;6.04
20730;BMP280;10526;50.850;12.928;2023-02-13T01:00:52;99994.38;;;6.03
20730;BMP280;10526;50.850;12.928;2023-02-13T01:05:14;99989.53;;;6.05
20730;BMP280;10526;50.850;12.928;2023-02-13T01:09:36;99993.69;;;6.06
20730;BMP280;10526;50.850;12.928;2023-02-13T01:13:58;99996.06;;;6.08
20730;BMP280;10526;50.850;12.928;2023-02-13T01:18:20;99999.94;;;6.11
20730;BMP280;10526;50.850;12.928;2023-02-13T01:22:42;99998.38;;;6.09
20730;BMP280;10526;50.850;12.928;2023-02-13T01:27:05;100004.28;;;6.06
20730;BMP280;10526;50.850;12.928;2023-02-13T01:31:27;99990.91;;;6.03
20730;BMP280;10526;50.850;12.928;2023-02-13T01:35:50;99992.78;;;5.94
20730;BMP280;10526;50.850;12.928;2023-02-13T01:40:14;99988.25;;;5.86
20730;BMP280;10526;50.850;12.928;2023-02-13T01:44:58;99989.66;;;5.83
20730;BMP280;10526;50.850;12.928;2023-02-13T01:49:24;99984.69;;;5.81
20730;BMP280;10526;50.850;12.928;2023-02-13T01:53:57;99972.25;;;5.73
20730;BMP280;10526;50.850;12.928;2023-02-13T01:58:25;99985.56;;;5.68
20730;BMP280;10526;50.850;12.928;2023-02-13T02:03:12;99973.28;;;5.64
20730;BMP280;10526;50.850;12.928;2023-02-13T02:07:39;99971.13;;;5.66
20730;BMP280;10526;50.850;12.928;2023-02-13T02:12:34;99966.44;;;5.63
20730;BMP280;10526;50.850;12.928;2023-02-13T02:16:59;99966.78;;;5.70
20730;BMP280;10526;50.850;12.928;2023-02-13T02:41:09;99966.59;;;5.66
20730;BMP280;10526;50.850;12.928;2023-02-13T02:45:43;99953.22;;;5.63
20730;BMP280;10526;50.850;12.928;2023-02-13T02:50:38;99956.03;;;5.66
20730;BMP280;10526;50.850;12.928;2023-02-13T02:55:17;99962.09;;;5.67
20730;BMP280;10526;50.850;12.928;2023-02-13T02:59:47;99954.50;;;5.65
20730;BMP280;10526;50.850;12.928;2023-02-13T03:04:47;99952.91;;;5.55
20730;BMP280;10526;50.850;12.928;2023-02-13T03:09:39;99949.50;;;5.55
20730;BMP280;10526;50.850;12.928;2023-02-13T03:14:21;99945.13;;;5.50
20730;BMP280;10526;50.850;12.928;2023-02-13T03:18:50;99938.25;;;5.41
20730;BMP280;10526;50.850;12.928;2023-02-13T03:24:06;99940.91;;;5.41
20730;BMP280;10526;50.850;12.928;2023-02-13T03:28:42;99949.78;;;5.45
20730;BMP280;10526;50.850;12.928;2023-02-13T03:33:51;99957.41;;;5.46
20730;BMP280;10526;50.850;12.928;2023-02-13T03:43:14;99961.59;;;5.47
20730;BMP280;10526;50.850;12.928;2023-02-13T03:47:39;99969.38;;;5.44
20730;BMP280;10526;50.850;12.928;2023-02-13T03:52:27;99960.97;;;5.42
20730;BMP280;10526;50.850;12.928;2023-02-13T03:56:51;99969.38;;;5.44
20730;BMP280;10526;50.850;12.928;2023-02-13T04:01:34;99970.78;;;5.50
20730;BMP280;10526;50.850;12.928;2023-02-13T04:06:10;99969.88;;;5.54
20730;BMP280;10526;50.850;12.928;2023-02-13T04:10:36;99974.38;;;5.54
20730;BMP280;10526;50.850;12.928;2023-02-13T04:19:59;99974.97;;;5.51
20730;BMP280;10526;50.850;12.928;2023-02-13T04:24:21;99972.34;;;5.51
20730;BMP280;10526;50.850;12.928;2023-02-13T04:28:44;99974.19;;;5.50
20730;BMP280;10526;50.850;12.928;2023-02-13T04:33:06;99977.63;;;5.51
20730;BMP280;10526;50.850;12.928;2023-02-13T04:37:28;99972.00;;;5.52
20730;BMP280;10526;50.850;12.928;2023-02-13T04:41:50;99974.97;;;5.51
20730;BMP280;10526;50.850;12.928;2023-02-13T04:46:12;99961.91;;;5.46
20730;BMP280;10526;50.850;12.928;2023-02-13T04:50:35;99965.63;;;5.45
20730;BMP280;10526;50.850;12.928;2023-02-13T04:54:57;99967.81;;;5.43
20730;BMP280;10526;50.850;12.928;2023-02-13T04:59:19;99965.16;;;5.34
20730;BMP280;10526;50.850;12.928;2023-02-13T05:03:41;99963.28;;;5.35
20730;BMP280;10526;50.850;12.928;2023-02-13T05:08:05;99965.28;;;5.29
20730;BMP280;10526;50.850;12.928;2023-02-13T05:12:28;99956.13;;;5.26
20730;BMP280;10526;50.850;12.928;2023-02-13T05:16:51;99950.03;;;5.26
20730;BMP280;10526;50.850;12.928;2023-02-13T05:21:13;99958.75;;;5.26
20730;BMP280;10526;50.850;12.928;2023-02-13T05:26:10;99955.19;;;5.31
20730;BMP280;10526;50.850;12.928;2023-02-13T05:30:32;99953.94;;;5.28
20730;BMP280;10526;50.850;12.928;2023-02-13T05:34:58;99945.06;;;5.24
20730;BMP280;10526;50.850;12.928;2023-02-13T05:39:23;99955.16;;;5.22
20730;BMP280;10526;50.850;12.928;2023-02-13T05:43:45;99955.63;;;5.24
20730;BMP280;10526;50.850;12.928;2023-02-13T05:48:07;99956.59;;;5.28
20730;BMP280;10526;50.850;12.928;2023-02-13T05:52:29;99960.31;;;5.27
20730;BMP280;10526;50.850;12.928;2023-02-13T05:56:51;99961.34;;;5.18
20730;BMP280;10526;50.850;12.928;2023-02-13T06:01:13;99971.88;;;5.09
20730;BMP280;10526;50.850;12.928;2023-02-13T06:05:35;99963.75;;;4.97
20730;BMP280;10526;50.850;12.928;2023-02-13T06:09:58;99967.94;;;4.98
20730;BMP280;10526;50.850;12.928;2023-02-13T06:14:20;99969.97;;;5.01
20730;BMP280;10526;50.850;12.928;2023-02-13T06:18:42;99973.41;;;5.01
20730;BMP280;10526;50.850;12.928;2023-02-13T06:23:04;99982.59;;;5.04
20730;BMP280;10526;50.850;12.928;2023-02-13T06:27:26;99984.91;;;5.06
20730;BMP280;10526;50.850;12.928;2023-02-13T06:31:49;99994.88;;;5.09
20730;BMP280;10526;50.850;12.928;2023-02-13T06:36:11;99987.88;;;5.04
20730;BMP280;10526;50.850;12.928;2023-02-13T06:40:33;99990.16;;;4.97
20730;BMP280;10526;50.850;12.928;2023-02-13T06:44:55;99988.13;;;4.94
20730;BMP280;10526;50.850;12.928;2023-02-13T06:49:17;100002.41;;;4.93
20730;BMP280;10526;50.850;12.928;2023-02-13T06:53:40;99998.69;;;4.94
20730;BMP280;10526;50.850;12.928;2023-02-13T06:58:02;99997.53;;;4.86
20730;BMP280;10526;50.850;12.928;2023-02-13T07:02:24;99997.09;;;4.84
20730;BMP280;10526;50.850;12.928;2023-02-13T07:06:49;100007.69;;;4.93
20730;BMP280;10526;50.850;12.928;2023-02-13T07:11:19;100007.22;;;4.91
20730;BMP280;10526;50.850;12.928;2023-02-13T07:15:41;100007.34;;;4.86
20730;BMP280;10526;50.850;12.928;2023-02-13T07:20:05;100020.22;;;4.87
20730;BMP280;10526;50.850;12.928;2023-02-13T07:24:27;100013.56;;;4.90
20730;BMP280;10526;50.850;12.928;2023-02-13T07:28:50;100013.91;;;4.97
20730;BMP280;10526;50.850;12.928;2023-02-13T07:33:34;100018.81;;;5.12
20730;BMP280;10526;50.850;12.928;2023-02-13T07:37:56;100014.16;;;5.09
20730;BMP280;10526;50.850;12.928;2023-02-13T07:42:20;100019.13;;;5.11
20730;BMP280;10526;50.850;12.928;2023-02-13T07:46:44;100015.94;;;5.22
20730;BMP280;10526;50.850;12.928;2023-02-13T07:51:06;100021.91;;;5.45
20730;BMP280;10526;50.850;12.928;2023-02-13T07:55:29;100022.75;;;5.72
20730;BMP280;10526;50.850;12.928;2023-02-13T07:59:51;100009.56;;;6.06
20730;BMP280;10526;50.850;12.928;2023-02-13T08:04:14;100014.56;;;6.69
20730;BMP280;10526;50.850;12.928;2023-02-13T08:08:36;100011.59;;;7.17
20730;BMP280;10526;50.850;12.928;2023-02-13T08:12:59;100011.16;;;7.45
20730;BMP280;10526;50.850;12.928;2023-02-13T08:17:21;100008.69;;;8.11
20730;BMP280;10526;50.850;12.928;2023-02-13T08:21:44;100021.31;;;9.17
20730;BMP280;10526;50.850;12.928;2023-02-13T08:26:06;100030.72;;;9.39
20730;BMP280;10526;50.850;12.928;2023-02-13T08:30:28;100036.06;;;9.14
20730;BMP280;10526;50.850;12.928;2023-02-13T08:34:51;100040.56;;;8.89
20730;BMP280;10526;50.850;12.928;2023-02-13T08:39:13;100035.00;;;8.70
20730;BMP280;10526;50.850;12.928;2023-02-13T08:43:36;100030.13;;;8.72
20730;BMP280;10526;50.850;12.928;2023-02-13T08:47:59;100037.38;;;8.96
20730;BMP280;10526;50.850;12.928;2023-02-13T08:52:21;100033.94;;;9.20
20730;BMP280;10526;50.850;12.928;2023-02-13T08:56:43;100033.38;;;9.39
20730;BMP280;10526;50.850;12.928;2023-02-13T09:01:08;100036.59;;;9.32
20730;BMP280;10526;50.850;12.928;2023-02-13T09:05:30;100039.38;;;9.11
20730;BMP280;10526;50.850;12.928;2023-02-13T09:09:53;100053.38;;;8.75
20730;BMP280;10526;50.850;12.928;2023-02-13T09:14:15;100047.13;;;8.26
20730;BMP280;10526;50.850;12.928;2023-02-13T09:18:38;100055.81;;;8.14
20730;BMP280;10526;50.850;12.928;2023-02-13T09:23:03;100044.28;;;8.31
20730;BMP280;10526;50.850;12.928;2023-02-13T09:27:26;100049.84;;;8.38
20730;BMP280;10526;50.850;12.928;2023-02-13T09:31:48;100057.50;;;8.97
20730;BMP280;10526;50.850;12.928;2023-02-13T09:36:15;100063.19;;;9.69
20730;BMP280;10526;50.850;12.928;2023-02-13T09:40:54;100062.88;;;9.98
20730;BMP280;10526;50.850;12.928;2023-02-13T09:45:19;100054.91;;;9.98
20730;BMP280;10526;50.850;12.928;2023-02-13T09:49:51;100062.56;;;10.28
20730;BMP280;10526;50.850;12.928;2023-02-13T09:54:15;100052.28;;;11.02
20730;BMP280;10526;50.850;12.928;2023-02-13T09:58:51;100052.78;;;10.76
20730;BMP280;10526;50.850;12.928;2023-02-13T10:03:36;100061.22;;;10.06
20730;BMP280;10526;50.850;12.928;2023-02-13T10:13:27;100063.81;;;8.80
20730;BMP280;10526;50.850;12.928;2023-02-13T10:18:37;100067.63;;;9.04
20730;BMP280;10526;50.850;12.928;2023-02-13T10:23:21;100068.97;;;9.22
20730;BMP280;10526;50.850;12.928;2023-02-13T10:28:13;100058.75;;;9.36
20730;BMP280;10526;50.850;12.928;2023-02-13T10:33:13;100063.06;;;9.28
20730;BMP280;10526;50.850;12.928;2023-02-13T10:37:40;100051.66;;;9.40
20730;BMP280;10526;50.850;12.928;2023-02-13T10:47:12;100051.91;;;10.28
20730;BMP280;10526;50.850;12.928;2023-02-13T10:51:58;100044.69;;;10.56
20730;BMP280;10526;50.850;12.928;2023-02-13T10:56:46;100039.78;;;10.15
20730;BMP280;10526;50.850;12.928;2023-02-13T11:01:24;100035.69;;;10.33
20730;BMP280;10526;50.850;12.928;2023-02-13T11:05:53;100027.66;;;10.77
20730;BMP280;10526;50.850;12.928;2023-02-13T11:10:25;100024.22;;;10.60
20730;BMP280;10526;50.850;12.928;2023-02-13T11:15:04;100022.31;;;9.89
20730;BMP280;10526;50.850;12.928;2023-02-13T11:19:46;100013.16;;;10.15
20730;BMP280;10526;50.850;12.928;2023-02-13T11:24:22;99996.34;;;10.58
20730;BMP280;10526;50.850;12.928;2023-02-13T11:29:00;100003.94;;;11.58
20730;BMP280;10526;50.850;12.928;2023-02-13T11:33:29;99989.00;;;11.18
20730;BMP280;10526;50.850;12.928;2023-02-13T11:42:41;99992.22;;;10.76
20730;BMP280;10526;50.850;12.928;2023-02-13T11:47:04;99989.06;;;11.95
20730;BMP280;10526;50.850;12.928;2023-02-13T11:51:42;99986.84;;;12.01
20730;BMP280;10526;50.850;12.928;2023-02-13T11:56:13;99984.19;;;14.38
20730;BMP280;10526;50.850;12.928;2023-02-13T12:00:38;99981.66;;;15.25
20730;BMP280;10526;50.850;12.928;2023-02-13T12:05:25;99983.72;;;15.88
20730;BMP280;10526;50.850;12.928;2023-02-13T12:14:44;99974.91;;;16.37
20730;BMP280;10526;50.850;12.928;2023-02-13T12:19:16;99978.50;;;17.84
20730;BMP280;10526;50.850;12.928;2023-02-13T12:28:15;99976.41;;;18.47
20730;BMP280;10526;50.850;12.928;2023-02-13T12:37:56;99967.63;;;15.81
20730;BMP280;10526;50.850;12.928;2023-02-13T12:47:31;99962.53;;;12.06
20730;BMP280;10526;50.850;12.928;2023-02-13T13:12:01;99943.47;;;10.13
20730;BMP280;10526;50.850;12.928;2023-02-13T13:17:05;99951.44;;;10.13
20730;BMP280;10526;50.850;12.928;2023-02-13T13:21:50;99949.72;;;10.04
20730;BMP280;10526;50.850;12.928;2023-02-13T13:30:46;99948.84;;;9.72
20730;BMP280;10526;50.850;12.928;2023-02-13T13:35:14;99935.94;;;9.59
20730;BMP280;10526;50.850;12.928;2023-02-13T13:39:57;99953.66;;;9.14
20730;BMP280;10526;50.850;12.928;2023-02-13T13:49:56;99953.41;;;9.07
20730;BMP280;10526;50.850;12.928;2023-02-13T13:54:23;99956.06;;;9.07
20730;BMP280;10526;50.850;12.928;2023-02-13T13:58:46;99955.81;;;8.51
20730;BMP280;10526;50.850;12.928;2023-02-13T14:03:33;99943.63;;;8.38
20730;BMP280;10526;50.850;12.928;2023-02-13T14:08:07;99938.38;;;8.29
20730;BMP280;10526;50.850;12.928;2023-02-13T14:22:25;99937.16;;;8.14
20730;BMP280;10526;50.850;12.928;2023-02-13T14:26:54;99940.56;;;8.15
20730;BMP280;10526;50.850;12.928;2023-02-13T14:32:01;99938.94;;;8.23
20730;BMP280;10526;50.850;12.928;2023-02-13T14:36:46;99931.28;;;8.21
20730;BMP280;10526;50.850;12.928;2023-02-13T14:46:33;99941.91;;;7.67
20730;BMP280;10526;50.850;12.928;2023-02-13T14:50:57;99937.72;;;7.45
20730;BMP280;10526;50.850;12.928;2023-02-13T14:55:35;99934.19;;;7.32
20730;BMP280;10526;50.850;12.928;2023-02-13T15:00:08;99932.16;;;7.29
20730;BMP280;10526;50.850;12.928;2023-02-13T15:04:43;99922.03;;;7.31
20730;BMP280;10526;50.850;12.928;2023-02-13T15:09:35;99908.78;;;7.10
20730;BMP280;10526;50.850;12.928;2023-02-13T15:18:50;99907.88;;;6.98
20730;BMP280;10526;50.850;12.928;2023-02-13T15:23:23;99921.47;;;6.96
20730;BMP280;10526;50.850;12.928;2023-02-13T15:27:51;99921.66;;;6.82
20730;BMP280;10526;50.850;12.928;2023-02-13T15:32:31;99923.28;;;6.66
20730;BMP280;10526;50.850;12.928;2023-02-13T15:36:54;99904.00;;;6.57
20730;BMP280;10526;50.850;12.928;2023-02-13T15:41:23;99902.28;;;6.52
20730;BMP280;10526;50.850;12.928;2023-02-13T15:45:48;99903.25;;;6.39
20730;BMP280;10526;50.850;12.928;2023-02-13T15:50:34;99894.91;;;6.20
20730;BMP280;10526;50.850;12.928;2023-02-13T15:54:57;99884.63;;;6.18
20730;BMP280;10526;50.850;12.928;2023-02-13T15:59:20;99884.34;;;6.11
20730;BMP280;10526;50.850;12.928;2023-02-13T16:03:44;99883.41;;;6.16
20730;BMP280;10526;50.850;12.928;2023-02-13T16:12:47;99872.38;;;6.05
20730;BMP280;10526;50.850;12.928;2023-02-13T16:17:26;99870.66;;;5.92
20730;BMP280;10526;50.850;12.928;2023-02-13T16:21:51;99873.28;;;5.83
20730;BMP280;10526;50.850;12.928;2023-02-13T16:26:15;99875.78;;;5.79
20730;BMP280;10526;50.850;12.928;2023-02-13T16:30:44;99867.72;;;5.76
20730;BMP280;10526;50.850;12.928;2023-02-13T16:35:30;99865.22;;;5.71
20730;BMP280;10526;50.850;12.928;2023-02-13T16:39:53;99871.44;;;5.66
20730;BMP280;10526;50.850;12.928;2023-02-13T16:44:26;99879.06;;;5.68
20730;BMP280;10526;50.850;12.928;2023-02-13T16:53:18;99889.97;;;5.75
20730;BMP280;10526;50.850;12.928;2023-02-13T16:57:40;99897.41;;;5.81
20730;BMP280;10526;50.850;12.928;2023-02-13T17:02:31;99895.72;;;5.86
20730;BMP280;10526;50.850;12.928;2023-02-13T17:06:54;99894.16;;;5.85
20730;BMP280;10526;50.850;12.928;2023-02-13T17:11:17;99904.91;;;5.88
20730;BMP280;10526;50.850;12.928;2023-02-13T17:15:47;99904.13;;;5.88
20730;BMP280;10526;50.850;12.928;2023-02-13T17:20:16;99906.13;;;5.91
20730;BMP280;10526;50.850;12.928;2023-02-13T17:24:38;99897.25;;;5.87
20730;BMP280;10526;50.850;12.928;2023-02-13T17:29:00;99898.97;;;5.82
20730;BMP280;10526;50.850;12.928;2023-02-13T17:33:26;99898.50;;;5.80
20730;BMP280;10526;50.850;12.928;2023-02-13T17:37:49;99894.78;;;5.81
20730;BMP280;10526;50.850;12.928;2023-02-13T17:42:27;99899.44;;;5.85
20730;BMP280;10526;50.850;12.928;2023-02-13T17:46:49;99897.25;;;5.87
20730;BMP280;10526;50.850;12.928;2023-02-13T17:51:14;99894.91;;;5.94
20730;BMP280;10526;50.850;12.928;2023-02-13T17:55:37;99893.69;;;5.91
20730;BMP280;10526;50.850;12.928;2023-02-13T17:59:59;99894.78;;;5.90
20730;BMP280;10526;50.850;12.928;2023-02-13T18:04:32;99889.81;;;5.89
20730;BMP280;10526;50.850;12.928;2023-02-13T18:08:54;99891.81;;;5.83
20730;BMP280;10526;50.850;12.928;2023-02-13T18:13:16;99886.22;;;5.76
20730;BMP280;10526;50.850;12.928;2023-02-13T18:17:39;99883.91;;;5.74
20730;BMP280;10526;50.850;12.928;2023-02-13T18:22:02;99882.34;;;5.73
20730;BMP280;10526;50.850;12.928;2023-02-13T18:26:25;99884.81;;;5.78
20730;BMP280;10526;50.850;12.928;2023-02-13T18:30:47;99881.75;;;5.76
20730;BMP280;10526;50.850;12.928;2023-02-13T18:35:11;99880.16;;;5.75
20730;BMP280;10526;50.850;12.928;2023-02-13T18:39:33;99871.78;;;5.73
20730;BMP280;10526;50.850;12.928;2023-02-13T18:43:56;99869.56;;;5.67
20730;BMP280;10526;50.850;12.928;2023-02-13T18:48:19;99866.31;;;5.61
20730;BMP280;10526;50.850;12.928;2023-02-13T18:52:44;99870.03;;;5.51
20730;BMP280;10526;50.850;12.928;2023-02-13T18:57:07;99866.13;;;5.49
20730;BMP280;10526;50.850;12.928;2023-02-13T19:01:29;99873.78;;;5.50
20730;BMP280;10526;50.850;12.928;2023-02-13T19:05:51;99867.72;;;5.50
20730;BMP280;10526;50.850;12.928;2023-02-13T19:10:14;99877.97;;;5.51
20730;BMP280;10526;50.850;12.928;2023-02-13T19:14:38;99876.88;;;5.52
20730;BMP280;10526;50.850;12.928;2023-02-13T19:19:05;99888.22;;;5.53
20730;BMP280;10526;50.850;12.928;2023-02-13T19:23:28;99884.19;;;5.55
20730;BMP280;10526;50.850;12.928;2023-02-13T19:27:51;99890.75;;;5.58
20730;BMP280;10526;50.850;12.928;2023-02-13T19:32:16;99887.78;;;5.60
20730;BMP280;10526;50.850;12.928;2023-02-13T19:36:38;99887.59;;;5.56
20730;BMP280;10526;50.850;12.928;2023-02-13T19:41:10;99888.22;;;5.53
20730;BMP280;10526;50.850;12.928;2023-02-13T19:45:33;99884.63;;;5.49
20730;BMP280;10526;50.850;12.928;2023-02-13T19:49:55;99882.47;;;5.42
20730;BMP280;10526;50.850;12.928;2023-02-13T19:54:17;99875.59;;;5.33
20730;BMP280;10526;50.850;12.928;2023-02-13T19:58:41;99870.63;;;5.31
20730;BMP280;10526;50.850;12.928;2023-02-13T20:03:03;99862.69;;;5.31
20730;BMP280;10526;50.850;12.928;2023-02-13T20:07:26;99859.28;;;5.30
20730;BMP280;10526;50.850;12.928;2023-02-13T20:11:51;99864.72;;;5.25
20730;BMP280;10526;50.850;12.928;2023-02-13T20:16:15;99864.13;;;5.28
20730;BMP280;10526;50.850;12.928;2023-02-13T20:20:38;99865.19;;;5.19
20730;BMP280;10526;50.850;12.928;2023-02-13T20:25:01;99865.63;;;5.21
20730;BMP280;10526;50.850;12.928;2023-02-13T20:29:24;99862.72;;;5.22
20730;BMP280;10526;50.850;12.928;2023-02-13T20:33:48;99860.53;;;5.24
20730;BMP280;10526;50.850;12.928;2023-02-13T20:38:11;99852.28;;;5.26
20730;BMP280;10526;50.850;12.928;2023-02-13T20:42:35;99870.50;;;5.27
20730;BMP280;10526;50.850;12.928;2023-02-13T20:46:57;99863.00;;;5.21
20730;BMP280;10526;50.850;12.928;2023-02-13T20:51:21;99856.94;;;5.12
20730;BMP280;10526;50.850;12.928;2023-02-13T20:55:44;99852.69;;;5.02
20730;BMP280;10526;50.850;12.928;2023-02-13T21:00:09;99848.81;;;4.99
20730;BMP280;10526;50.850;12.928;2023-02-13T21:04:33;99847.41;;;5.02
20730;BMP280;10526;50.850;12.928;2023-02-13T21:08:56;99843.81;;;4.98
20730;BMP280;10526;50.850;12.928;2023-02-13T21:13:19;99844.00;;;5.01
20730;BMP280;10526;50.850;12.928;2023-02-13T21:17:41;99849.28;;;5.01
20730;BMP280;10526;50.850;12.928;2023-02-13T21:22:04;99859.25;;;5.04
20730;BMP280;10526;50.850;12.928;2023-02-13T21:26:33;99867.34;;;5.08
20730;BMP280;10526;50.850;12.928;2023-02-13T21:30:55;99876.34;;;5.07
20730;BMP280;10526;50.850;12.928;2023-02-13T21:35:18;99881.75;;;5.02
20730;BMP280;10526;50.850;12.928;2023-02-13T21:39:40;99888.56;;;5.03
20730;BMP280;10526;50.850;12.928;2023-02-13T21:44:03;99885.94;;;4.94
20730;BMP280;10526;50.850;12.928;2023-02-13T21:48:26;99889.34;;;4.95
20730;BMP280;10526;50.850;12.928;2023-02-13T21:52:48;99887.94;;;4.97
20730;BMP280;10526;50.850;12.928;2023-02-13T21:57:13;99887.34;;;5.00
20730;BMP280;10526;50.850;12.928;2023-02-13T22:01:36;99889.06;;;5.05
20730;BMP280;10526;50.850;12.928;2023-02-13T22:05:59;99886.91;;;5.07
20730;BMP280;10526;50.850;12.928;2023-02-13T22:10:21;99904.91;;;5.05
20730;BMP280;10526;50.850;12.928;2023-02-13T22:14:44;99890.75;;;5.01
20730;BMP280;10526;50.850;12.928;2023-02-13T22:19:06;99904.28;;;4.99
20730;BMP280;10526;50.850;12.928;2023-02-13T22:23:29;99903.00;;;4.97
20730;BMP280;10526;50.850;12.928;2023-02-13T22:27:54;99901.78;;;5.03
20730;BMP280;10526;50.850;12.928;2023-02-13T22:32:17;99904.91;;;5.05
20730;BMP280;10526;50.850;12.928;2023-02-13T22:36:40;99905.50;;;5.02
20730;BMP280;10526;50.850;12.928;2023-02-13T22:41:12;99898.69;;;5.01
20730;BMP280;10526;50.850;12.928;2023-02-13T22:45:38;99908.47;;;5.00
20730;BMP280;10526;50.850;12.928;2023-02-13T22:50:00;99906.09;;;4.99
20730;BMP280;10526;50.850;12.928;2023-02-13T22:54:23;99911.09;;;5.00
20730;BMP280;10526;50.850;12.928;2023-02-13T22:58:45;99905.34;;;4.98
20730;BMP280;10526;50.850;12.928;2023-02-13T23:03:07;99909.22;;;4.92
20730;BMP280;10526;50.850;12.928;2023-02-13T23:07:29;99907.47;;;4.88
20730;BMP280;10526;50.850;12.928;2023-02-13T23:11:51;99923.44;;;4.83
20730;BMP280;10526;50.850;12.928;2023-02-13T23:16:32;99910.38;;;4.77
20730;BMP280;10526;50.850;12.928;2023-02-13T23:21:14;99925.38;;;4.68
20730;BMP280;10526;50.850;12.928;2023-02-13T23:25:37;99921.47;;;4.57
20730;BMP280;10526;50.850;12.928;2023-02-13T23:30:00;99922.66;;;4.51
20730;BMP280;10526;50.850;12.928;2023-02-13T23:34:22;99919.66;;;4.44
20730;BMP280;10526;50.850;12.928;2023-02-13T23:38:44;99924.13;;;4.35
20730;BMP280;10526;50.850;12.928;2023-02-13T23:43:07;99928.78;;;4.38
20730;BMP280;10526;50.850;12.928;2023-02-13T23:47:29;99929.63;;;4.24
20730;BMP280;10526;50.850;12.928;2023-02-13T23:51:51;99922.78;;;4.23
20730;BMP280;10526;50.850;12.928;2023-02-13T23:56:13;99933.81;;;4.25
